createdAt,value
2019-05-12T00:01:28.557Z,56.75
2019-05-12T00:03:58.092Z,56.98
2019-05-12T00:06:28.445Z,56.82
2019-05-12T00:08:58.001Z,57.00
2019-05-12T00:11:28.736Z,57.07
2019-05-12T00:13:58.594Z,57.57
2019-05-12T00:16:28.391Z,57.33
2019-05-12T00:18:58.600Z,57.42
2019-05-12T00:21:28.345Z,57.47
2019-05-12T00:24:12.327Z,57.57
2019-05-12T00:26:41.624Z,57.70
2019-05-12T00:29:10.177Z,57.64
2019-05-12T00:31:38.659Z,57.99
2019-05-12T00:34:07.764Z,57.83
2019-05-12T00:36:37.948Z,57.69
2019-05-12T00:39:08.668Z,57.86
2019-05-12T00:41:38.928Z,57.98
2019-05-12T00:44:08.814Z,57.89
2019-05-12T00:46:38.542Z,57.94
2019-05-12T00:49:07.964Z,57.88
2019-05-12T00:51:38.353Z,58.05
2019-05-12T00:54:09.154Z,58.11
2019-05-12T00:56:39.240Z,57.96
2019-05-12T00:59:08.385Z,58.00
2019-05-12T01:01:38.074Z,58.21
2019-05-12T01:04:08.887Z,58.28
2019-05-12T01:06:38.751Z,58.52
2019-05-12T01:09:08.733Z,58.88
2019-05-12T01:11:37.919Z,59.02
2019-05-12T01:14:08.489Z,58.98
2019-05-12T01:16:38.502Z,59.21
2019-05-12T01:19:08.038Z,59.44
2019-05-12T01:21:37.698Z,59.39
2019-05-12T01:24:08.825Z,59.22
2019-05-12T01:26:38.747Z,59.17
2019-05-12T01:29:08.396Z,59.31
2019-05-12T01:31:42.712Z,59.38
2019-05-12T01:34:11.226Z,59.41
2019-05-12T01:36:39.714Z,59.55
2019-05-12T01:39:08.547Z,60.10
2019-05-12T01:41:38.969Z,60.04
2019-05-12T01:44:08.837Z,60.31
2019-05-12T01:46:38.289Z,60.64
2019-05-12T01:49:08.185Z,60.73
2019-05-12T01:51:38.488Z,60.35
2019-05-12T01:54:13.906Z,60.37
2019-05-12T01:56:38.256Z,60.40
2019-05-12T01:59:08.138Z,60.63
2019-05-12T02:01:38.910Z,61.14
2019-05-12T02:04:07.760Z,60.69
2019-05-12T02:06:38.607Z,60.16
2019-05-12T02:09:09.457Z,60.37
2019-05-12T02:11:38.173Z,60.63
2019-05-12T02:14:09.251Z,60.71
2019-05-12T02:16:38.707Z,60.94
2019-05-12T02:19:09.087Z,61.00
2019-05-12T02:21:38.210Z,60.63
2019-05-12T02:24:07.854Z,60.55
2019-05-12T02:26:38.220Z,60.86
2019-05-12T02:29:07.907Z,61.00
2019-05-12T02:31:39.847Z,60.89
2019-05-12T02:34:06.857Z,60.90
2019-05-12T02:36:35.341Z,61.09
2019-05-12T02:39:05.450Z,61.47
2019-05-12T02:41:34.668Z,61.19
2019-05-12T02:44:05.321Z,61.23
2019-05-12T02:46:34.786Z,61.53
2019-05-12T02:49:04.808Z,61.43
2019-05-12T02:51:35.216Z,61.50
2019-05-12T02:54:05.516Z,61.69
2019-05-12T02:56:35.490Z,61.69
2019-05-12T02:59:05.394Z,61.32
2019-05-12T03:01:34.796Z,61.71
2019-05-12T03:04:05.650Z,61.84
2019-05-12T03:06:36.089Z,61.73
2019-05-12T03:09:07.093Z,61.78
2019-05-12T03:11:35.801Z,61.89
2019-05-12T03:14:04.476Z,61.58
2019-05-12T03:16:34.888Z,61.58
2019-05-12T03:19:05.004Z,61.75
2019-05-12T03:21:35.292Z,61.72
2019-05-12T03:24:06.122Z,61.65
2019-05-12T03:26:34.815Z,61.63
2019-05-12T03:29:05.810Z,61.66
2019-05-12T03:31:38.684Z,61.89
2019-05-12T03:34:09.504Z,62.10
2019-05-12T03:36:41.153Z,62.30
2019-05-12T03:39:07.271Z,62.23
2019-05-12T03:41:35.758Z,62.20
2019-05-12T03:44:05.156Z,62.12
2019-05-12T03:46:35.203Z,62.14
2019-05-12T03:49:05.268Z,62.15
2019-05-12T03:51:35.015Z,62.22
2019-05-12T03:54:05.078Z,62.28
2019-05-12T03:56:34.655Z,62.18
2019-05-12T03:59:04.728Z,62.47
2019-05-12T04:01:36.242Z,62.54
2019-05-12T04:04:05.293Z,62.28
2019-05-12T04:06:34.728Z,62.36
2019-05-12T04:09:06.284Z,62.24
2019-05-12T04:11:35.793Z,62.07
2019-05-12T04:14:05.615Z,61.92
2019-05-12T04:16:36.291Z,62.46
2019-05-12T04:19:05.535Z,62.28
2019-05-12T04:21:35.291Z,62.59
2019-05-12T04:24:05.619Z,62.29
2019-05-12T04:26:36.501Z,62.58
2019-05-12T04:29:05.264Z,62.65
2019-05-12T04:31:34.862Z,62.58
2019-05-12T04:34:05.149Z,62.86
2019-05-12T04:36:35.514Z,62.48
2019-05-12T04:39:06.275Z,62.14
2019-05-12T04:41:35.508Z,62.12
2019-05-12T04:44:05.794Z,62.35
2019-05-12T04:46:34.816Z,62.45
2019-05-12T04:49:05.254Z,62.48
2019-05-12T04:51:34.965Z,62.96
2019-05-12T04:54:05.796Z,62.39
2019-05-12T04:56:35.799Z,65.09
2019-05-12T04:59:05.193Z,63.71
2019-05-12T05:01:34.880Z,62.68
2019-05-12T05:04:05.320Z,62.59
2019-05-12T05:06:34.361Z,62.88
2019-05-12T05:09:05.099Z,62.82
2019-05-12T05:11:34.540Z,62.51
2019-05-12T05:14:04.176Z,63.84
2019-05-12T05:16:34.589Z,62.62
2019-05-12T05:19:03.871Z,62.97
2019-05-12T05:21:34.365Z,62.82
2019-05-12T05:24:03.837Z,62.65
2019-05-12T05:26:36.613Z,62.37
2019-05-12T05:29:04.341Z,62.74
2019-05-12T05:31:33.648Z,62.72
2019-05-12T05:34:04.832Z,62.78
2019-05-12T05:36:34.573Z,62.58
2019-05-12T05:39:05.520Z,62.48
2019-05-12T05:41:34.630Z,62.45
2019-05-12T05:44:03.396Z,63.01
2019-05-12T05:46:33.644Z,62.45
2019-05-12T05:49:04.217Z,62.25
2019-05-12T05:51:33.530Z,62.39
2019-05-12T05:54:03.991Z,62.35
2019-05-12T05:56:42.305Z,62.57
2019-05-12T05:59:04.538Z,63.14
2019-05-12T06:01:34.781Z,62.71
2019-05-12T06:04:04.567Z,62.38
2019-05-12T06:06:34.220Z,62.41
2019-05-12T06:09:05.822Z,62.08
2019-05-12T06:11:34.665Z,62.17
2019-05-12T06:14:11.546Z,62.15
2019-05-12T06:16:34.038Z,61.91
2019-05-12T06:19:03.488Z,61.82
2019-05-12T06:21:36.842Z,61.85
2019-05-12T06:24:03.495Z,62.11
2019-05-12T06:26:35.362Z,61.90
2019-05-12T06:29:04.435Z,61.93
2019-05-12T06:31:33.391Z,61.84
2019-05-12T06:34:11.378Z,61.93
2019-05-12T06:36:33.933Z,61.90
2019-05-12T06:39:04.394Z,61.79
2019-05-12T06:41:33.607Z,61.74
2019-05-12T06:44:03.727Z,61.90
2019-05-12T06:46:34.247Z,61.66
2019-05-12T06:49:10.159Z,61.56
2019-05-12T06:51:33.923Z,61.44
2019-05-12T06:54:07.310Z,61.34
2019-05-12T06:56:34.227Z,61.66
2019-05-12T06:59:09.335Z,61.18
2019-05-12T07:01:33.546Z,61.07
2019-05-12T07:04:08.261Z,61.11
2019-05-12T07:06:33.906Z,60.85
2019-05-12T07:09:09.494Z,60.72
2019-05-12T07:11:42.530Z,60.79
2019-05-12T07:14:12.858Z,60.22
2019-05-12T07:16:35.501Z,60.74
2019-05-12T07:19:09.642Z,60.69
2019-05-12T07:21:34.306Z,60.59
2019-05-12T07:24:09.169Z,60.65
2019-05-12T07:26:33.925Z,60.23
2019-05-12T07:29:04.467Z,59.91
2019-05-12T07:31:33.689Z,59.99
2019-05-12T07:34:05.304Z,60.11
2019-05-12T07:36:33.353Z,60.01
2019-05-12T07:39:04.236Z,59.78
2019-05-12T07:41:34.171Z,58.71
2019-05-12T07:44:03.602Z,58.51
2019-05-12T07:46:34.263Z,59.39
2019-05-12T07:49:03.878Z,58.81
2019-05-12T07:51:36.328Z,58.79
2019-05-12T07:54:04.110Z,58.31
2019-05-12T07:56:35.694Z,58.55
2019-05-12T07:59:04.373Z,58.50
2019-05-12T08:01:38.137Z,58.22
2019-05-12T08:04:04.533Z,57.67
2019-05-12T08:06:41.463Z,57.49
2019-05-12T08:09:05.654Z,57.07
2019-05-12T08:11:38.710Z,56.93
2019-05-12T08:14:04.608Z,56.17
2019-05-12T08:16:36.797Z,56.26
2019-05-12T08:19:04.156Z,56.62
2019-05-12T08:21:34.747Z,55.51
2019-05-12T08:24:03.792Z,56.42
2019-05-12T08:26:33.466Z,52.57
2019-05-12T08:29:04.160Z,55.66
2019-05-12T08:31:38.598Z,55.67
2019-05-12T08:34:04.236Z,55.80
2019-05-12T08:36:33.419Z,55.32
2019-05-12T08:39:05.936Z,54.81
2019-05-12T08:41:34.109Z,54.20
2019-05-12T08:44:04.608Z,54.37
2019-05-12T08:46:34.321Z,54.53
2019-05-12T08:49:05.344Z,54.44
2019-05-12T08:51:33.884Z,52.62
2019-05-12T08:54:07.040Z,52.99
2019-05-12T08:56:33.231Z,54.04
2019-05-12T08:59:04.148Z,54.46
2019-05-12T09:01:34.162Z,53.19
2019-05-12T09:04:06.675Z,52.86
2019-05-12T09:06:34.276Z,53.17
2019-05-12T09:09:04.678Z,52.56
2019-05-12T09:11:33.716Z,53.64
2019-05-12T09:14:03.565Z,53.24
2019-05-12T09:16:33.521Z,53.69
2019-05-12T09:19:04.650Z,53.24
2019-05-12T09:21:36.532Z,51.00
2019-05-12T09:24:04.208Z,51.72
2019-05-12T09:26:34.464Z,51.07
2019-05-12T09:29:03.501Z,52.21
2019-05-12T09:31:33.648Z,51.12
2019-05-12T09:34:05.967Z,49.30
2019-05-12T09:36:33.902Z,51.06
2019-05-12T09:39:06.844Z,50.86
2019-05-12T09:41:42.660Z,51.38
2019-05-12T09:44:05.817Z,51.73
2019-05-12T09:46:37.618Z,51.68
2019-05-12T09:49:04.516Z,51.22
2019-05-12T09:51:41.129Z,51.42
2019-05-12T09:54:05.213Z,50.07
2019-05-12T09:56:34.244Z,50.70
2019-05-12T09:59:17.458Z,48.13
2019-05-12T10:01:35.345Z,49.33
2019-05-12T10:04:03.681Z,49.53
2019-05-12T10:06:33.961Z,49.11
2019-05-12T10:09:03.485Z,49.27
2019-05-12T10:11:32.014Z,49.95
2019-05-12T10:14:06.592Z,49.98
2019-05-12T10:16:33.279Z,49.15
2019-05-12T10:19:03.769Z,46.65
2019-05-12T10:21:31.672Z,47.85
2019-05-12T10:24:02.294Z,47.70
2019-05-12T10:26:30.378Z,48.15
2019-05-12T10:29:13.323Z,47.83
2019-05-12T10:31:29.516Z,47.11
2019-05-12T10:34:17.288Z,47.71
2019-05-12T10:36:49.182Z,47.24
2019-05-12T10:39:17.751Z,47.71
2019-05-12T10:41:46.348Z,47.83
2019-05-12T10:44:14.816Z,46.36
2019-05-12T10:46:43.949Z,47.06
2019-05-12T10:49:13.916Z,45.39
2019-05-12T10:51:44.124Z,45.90
2019-05-12T10:54:15.611Z,46.32
2019-05-12T10:56:43.812Z,46.02
2019-05-12T10:59:13.346Z,44.30
2019-05-12T11:01:47.279Z,45.28
2019-05-12T11:04:14.348Z,46.49
2019-05-12T11:06:46.852Z,45.46
2019-05-12T11:09:13.973Z,45.10
2019-05-12T11:11:46.813Z,44.54
2019-05-12T11:14:26.593Z,37.28
2019-05-12T11:16:47.190Z,42.88
2019-05-12T11:19:16.845Z,42.33
2019-05-12T11:21:45.579Z,42.64
2019-05-12T11:24:14.071Z,43.77
2019-05-12T11:26:43.260Z,43.82
2019-05-12T11:29:13.997Z,43.98
2019-05-12T11:31:44.082Z,44.14
2019-05-12T11:34:12.777Z,40.38
2019-05-12T11:36:54.499Z,42.76
2019-05-12T11:39:23.456Z,42.51
2019-05-12T11:41:51.603Z,42.73
2019-05-12T11:44:20.147Z,42.19
2019-05-12T11:46:48.885Z,40.97
2019-05-12T11:49:21.852Z,41.73
2019-05-12T11:51:48.614Z,42.90
2019-05-12T11:54:17.358Z,42.72
2019-05-12T11:56:50.314Z,42.69
2019-05-12T11:59:16.055Z,42.54
2019-05-12T12:01:49.440Z,41.96
2019-05-12T12:04:16.082Z,42.30
2019-05-12T12:06:45.046Z,40.33
2019-05-12T12:09:15.534Z,42.97
2019-05-12T12:11:43.983Z,43.17
2019-05-12T12:14:14.344Z,41.14
2019-05-12T12:16:50.014Z,41.43
2019-05-12T12:19:13.139Z,41.02
2019-05-12T12:21:46.119Z,41.14
2019-05-12T12:24:13.230Z,39.26
2019-05-12T12:26:44.238Z,40.55
2019-05-12T12:29:13.639Z,40.81
2019-05-12T12:31:50.088Z,41.01
2019-05-12T12:34:23.707Z,41.04
2019-05-12T12:36:49.026Z,40.90
2019-05-12T12:39:17.533Z,40.51
2019-05-12T12:41:58.287Z,41.02
2019-05-12T12:44:16.393Z,40.03
2019-05-12T12:46:44.921Z,41.04
2019-05-12T12:49:14.059Z,40.98
2019-05-12T12:51:43.524Z,40.01
2019-05-12T12:54:12.209Z,41.19
2019-05-12T12:56:40.691Z,37.63
2019-05-12T12:59:10.561Z,40.99
2019-05-12T13:01:39.395Z,40.63
2019-05-12T13:04:07.877Z,40.50
2019-05-12T13:06:36.634Z,37.37
2019-05-12T13:09:17.042Z,38.12
2019-05-12T13:11:37.603Z,39.10
2019-05-12T13:14:06.884Z,37.44
2019-05-12T13:16:35.377Z,39.20
2019-05-12T13:19:12.160Z,38.23
2019-05-12T13:21:34.060Z,39.40
2019-05-12T13:24:03.597Z,39.19
2019-05-12T13:26:32.329Z,38.89
2019-05-12T13:29:00.836Z,38.74
2019-05-12T13:31:29.438Z,38.72
2019-05-12T13:33:57.943Z,38.07
2019-05-12T13:36:29.454Z,38.28
2019-05-12T13:38:56.626Z,37.97
2019-05-12T13:41:25.144Z,38.45
2019-05-12T13:43:55.878Z,38.64
2019-05-12T13:46:24.037Z,38.53
2019-05-12T13:48:57.577Z,37.18
2019-05-12T13:51:24.132Z,37.72
2019-05-12T13:53:53.268Z,37.68
2019-05-12T13:56:25.755Z,37.38
2019-05-12T13:58:54.042Z,36.62
2019-05-12T14:01:24.696Z,37.46
2019-05-12T14:03:53.529Z,36.91
2019-05-12T14:06:31.237Z,37.15
2019-05-12T14:08:53.861Z,36.95
2019-05-12T14:11:23.860Z,36.85
2019-05-12T14:13:52.569Z,36.72
2019-05-12T14:16:23.680Z,37.27
2019-05-12T14:18:57.094Z,36.12
2019-05-12T14:21:24.309Z,36.70
2019-05-12T14:23:52.192Z,36.79
2019-05-12T14:26:20.958Z,36.91
2019-05-12T14:28:49.782Z,36.81
2019-05-12T14:31:29.334Z,37.07
2019-05-12T14:33:48.878Z,37.25
2019-05-12T14:36:22.153Z,36.94
2019-05-12T14:38:47.636Z,37.52
2019-05-12T14:41:16.169Z,37.17
2019-05-12T14:43:47.624Z,35.79
2019-05-12T14:46:14.867Z,37.40
2019-05-12T14:48:46.358Z,37.33
2019-05-12T14:51:14.124Z,36.55
2019-05-12T14:53:46.057Z,35.76
2019-05-12T14:56:14.049Z,36.31
2019-05-12T14:58:44.247Z,35.12
2019-05-12T15:01:14.271Z,36.48
2019-05-12T15:03:47.628Z,36.47
2019-05-12T15:06:14.164Z,36.28
2019-05-12T15:08:43.645Z,35.80
2019-05-12T15:11:13.247Z,35.75
2019-05-12T15:13:43.708Z,36.44
2019-05-12T15:16:12.340Z,36.51
2019-05-12T15:18:46.721Z,36.15
2019-05-12T15:21:11.028Z,36.06
2019-05-12T15:23:39.524Z,35.16
2019-05-12T15:26:09.628Z,35.09
2019-05-12T15:28:38.557Z,34.98
2019-05-12T15:31:07.022Z,34.52
2019-05-12T15:33:35.537Z,33.31
2019-05-12T15:36:04.681Z,34.35
2019-05-12T15:38:34.196Z,33.91
2019-05-12T15:41:04.233Z,33.80
2019-05-12T15:43:35.715Z,33.47
2019-05-12T15:46:03.064Z,33.43
2019-05-12T15:48:34.015Z,32.95
2019-05-12T15:51:05.191Z,32.68
2019-05-12T15:53:33.369Z,32.59
2019-05-12T15:56:05.670Z,32.44
2019-05-12T15:58:33.555Z,32.41
2019-05-12T16:01:04.386Z,32.59
2019-05-12T16:03:34.381Z,32.56
2019-05-12T16:06:10.192Z,32.84
2019-05-12T16:08:32.872Z,32.68
2019-05-12T16:11:01.605Z,32.46
2019-05-12T16:13:30.098Z,30.28
2019-05-12T16:16:03.452Z,32.10
2019-05-12T16:18:28.834Z,32.18
2019-05-12T16:20:59.142Z,32.09
2019-05-12T16:23:29.960Z,31.99
2019-05-12T16:26:04.823Z,31.88
2019-05-12T16:28:28.187Z,31.66
2019-05-12T16:30:58.878Z,32.53
2019-05-12T16:33:27.260Z,32.24
2019-05-12T16:35:59.930Z,32.42
2019-05-12T16:38:26.005Z,32.45
2019-05-12T16:40:54.499Z,32.66
2019-05-12T16:43:23.777Z,32.92
2019-05-12T16:45:53.787Z,32.52
2019-05-12T16:48:32.111Z,32.32
2019-05-12T16:50:52.711Z,32.48
2019-05-12T16:53:25.797Z,32.46
2019-05-12T16:55:53.255Z,32.25
2019-05-12T16:58:26.172Z,32.59
2019-05-12T17:00:53.386Z,32.62
2019-05-12T17:03:23.737Z,32.79
2019-05-12T17:05:55.861Z,32.66
2019-05-12T17:08:24.049Z,32.48
2019-05-12T17:11:01.147Z,32.99
2019-05-12T17:13:23.711Z,33.31
2019-05-12T17:15:55.279Z,33.71
2019-05-12T17:18:24.733Z,33.54
2019-05-12T17:20:54.530Z,33.34
2019-05-12T17:23:24.582Z,32.89
2019-05-12T17:25:53.304Z,32.91
2019-05-12T17:28:23.814Z,33.03
2019-05-12T17:30:54.367Z,33.10
2019-05-12T17:33:26.650Z,33.26
2019-05-12T17:35:53.428Z,33.28
2019-05-12T17:38:25.075Z,33.47
2019-05-12T17:40:56.442Z,33.77
2019-05-12T17:43:23.289Z,34.12
2019-05-12T17:45:56.826Z,34.41
2019-05-12T17:48:23.459Z,34.65
2019-05-12T17:50:53.894Z,34.73
2019-05-12T17:53:24.086Z,34.96
2019-05-12T17:55:54.038Z,35.06
2019-05-12T17:58:24.240Z,35.18
2019-05-12T18:00:52.956Z,35.14
2019-05-12T18:03:24.655Z,34.98
2019-05-12T18:05:53.439Z,35.06
2019-05-12T18:08:24.168Z,35.20
2019-05-12T18:10:54.311Z,35.53
2019-05-12T18:13:23.454Z,35.76
2019-05-12T18:15:52.793Z,35.71
2019-05-12T18:18:24.174Z,36.03
2019-05-12T18:20:51.537Z,36.18
2019-05-12T18:23:28.416Z,36.37
2019-05-12T18:25:50.735Z,36.91
2019-05-12T18:28:21.665Z,36.94
2019-05-12T18:30:49.554Z,37.13
2019-05-12T18:33:29.585Z,36.95
2019-05-12T18:35:48.299Z,37.49
2019-05-12T18:38:21.838Z,37.55
2019-05-12T18:40:47.049Z,37.61
2019-05-12T18:43:15.545Z,37.55
2019-05-12T18:45:48.641Z,37.64
2019-05-12T18:48:18.124Z,37.79
2019-05-12T18:50:44.500Z,37.99
2019-05-12T18:53:14.456Z,37.97
2019-05-12T18:55:44.272Z,38.13
2019-05-12T18:58:14.883Z,38.23
2019-05-12T19:00:43.662Z,38.19
2019-05-12T19:03:14.048Z,38.44
2019-05-12T19:05:43.725Z,38.34
2019-05-12T19:08:14.007Z,38.58
2019-05-12T19:10:44.410Z,39.07
2019-05-12T19:13:13.324Z,39.21
2019-05-12T19:15:43.963Z,39.21
2019-05-12T19:18:17.381Z,39.43
2019-05-12T19:20:43.294Z,39.41
2019-05-12T19:23:13.974Z,39.48
2019-05-12T19:25:43.686Z,39.69
2019-05-12T19:28:13.564Z,39.94
2019-05-12T19:30:43.752Z,39.78
2019-05-12T19:33:13.575Z,39.89
2019-05-12T19:35:42.589Z,39.62
2019-05-12T19:38:13.416Z,39.78
2019-05-12T19:40:48.943Z,40.17
2019-05-12T19:43:11.633Z,40.15
2019-05-12T19:45:40.612Z,40.47
2019-05-12T19:48:22.050Z,40.61
2019-05-12T19:50:44.431Z,40.83
2019-05-12T19:53:10.388Z,41.08
2019-05-12T19:55:39.089Z,41.95
2019-05-12T19:58:11.128Z,41.56
2019-05-12T20:00:37.870Z,41.69
2019-05-12T20:03:08.552Z,41.93
2019-05-12T20:05:36.575Z,41.91
2019-05-12T20:08:05.087Z,42.24
2019-05-12T20:10:37.679Z,42.19
2019-05-12T20:13:04.029Z,42.74
2019-05-12T20:15:36.631Z,43.16
2019-05-12T20:18:04.244Z,42.90
2019-05-12T20:20:36.677Z,42.83
2019-05-12T20:23:03.624Z,43.22
2019-05-12T20:25:34.036Z,43.33
2019-05-12T20:28:05.710Z,43.46
2019-05-12T20:30:33.203Z,43.93
2019-05-12T20:33:04.152Z,43.83
2019-05-12T20:35:33.771Z,43.51
2019-05-12T20:38:04.148Z,44.04
2019-05-12T20:40:37.537Z,44.22
2019-05-12T20:43:08.318Z,44.83
2019-05-12T20:45:40.951Z,45.18
2019-05-12T20:48:04.178Z,44.97
2019-05-12T20:50:38.763Z,45.38
2019-05-12T20:53:03.873Z,45.56
2019-05-12T20:55:36.616Z,45.87
2019-05-12T20:58:04.512Z,45.36
2019-05-12T21:00:33.702Z,46.49
2019-05-12T21:03:04.355Z,46.23
2019-05-12T21:05:34.314Z,46.23
2019-05-12T21:08:10.928Z,46.30
2019-05-12T21:10:34.140Z,46.88
2019-05-12T21:13:02.731Z,47.28
2019-05-12T21:15:37.336Z,47.45
2019-05-12T21:18:06.946Z,47.05
2019-05-12T21:20:33.709Z,47.40
2019-05-12T21:23:02.862Z,47.49
2019-05-12T21:25:33.770Z,47.43
2019-05-12T21:28:02.897Z,47.53
2019-05-12T21:30:33.837Z,48.17
2019-05-12T21:33:02.057Z,48.41
2019-05-12T21:35:33.795Z,48.94
2019-05-12T21:38:00.742Z,49.20
2019-05-12T21:40:30.549Z,50.13
2019-05-12T21:42:59.497Z,49.79
2019-05-12T21:45:30.886Z,49.95
2019-05-12T21:47:58.269Z,50.56
2019-05-12T21:50:32.478Z,50.06
2019-05-12T21:52:59.900Z,49.58
2019-05-12T21:55:27.532Z,49.87
2019-05-12T21:57:56.067Z,49.89
2019-05-12T22:00:34.636Z,50.23
2019-05-12T22:03:10.332Z,50.40
2019-05-12T22:05:48.163Z,50.39
2019-05-12T22:08:06.580Z,50.80
2019-05-12T22:10:35.282Z,50.63
2019-05-12T22:13:09.008Z,50.88
2019-05-12T22:15:33.998Z,50.73
2019-05-12T22:18:04.646Z,50.90
2019-05-12T22:20:32.907Z,51.41
2019-05-12T22:23:09.582Z,51.54
2019-05-12T22:25:34.319Z,51.59
2019-05-12T22:28:05.394Z,51.59
2019-05-12T22:30:34.991Z,52.07
2019-05-12T22:33:05.942Z,51.88
2019-05-12T22:35:33.670Z,51.76
2019-05-12T22:38:09.438Z,52.02
2019-05-12T22:40:33.108Z,52.00
2019-05-12T22:43:06.625Z,51.85
2019-05-12T22:45:37.755Z,52.49
2019-05-12T22:48:04.083Z,52.51
2019-05-12T22:50:34.923Z,52.37
2019-05-12T22:53:04.497Z,52.85
2019-05-12T22:55:35.815Z,52.71
2019-05-12T22:58:03.338Z,52.45
2019-05-12T23:00:34.205Z,52.85
2019-05-12T23:03:07.233Z,53.20
2019-05-12T23:05:32.438Z,53.27
2019-05-12T23:08:06.273Z,53.49
2019-05-12T23:10:31.181Z,53.64
2019-05-12T23:13:01.781Z,53.66
2019-05-12T23:15:29.896Z,53.56
2019-05-12T23:17:58.399Z,53.39
2019-05-12T23:20:30.958Z,53.51
2019-05-12T23:22:57.113Z,53.83
2019-05-12T23:25:25.591Z,54.18
2019-05-12T23:28:00.489Z,54.31
2019-05-12T23:30:26.020Z,54.49
2019-05-12T23:32:54.495Z,54.60
2019-05-12T23:35:22.990Z,54.53
2019-05-12T23:37:53.628Z,54.70
2019-05-12T23:40:23.603Z,54.90
2019-05-12T23:42:53.554Z,54.63
2019-05-12T23:45:24.239Z,54.68
2019-05-12T23:47:54.030Z,54.74
2019-05-12T23:50:24.096Z,54.83
2019-05-12T23:52:54.075Z,54.61
2019-05-12T23:55:24.193Z,54.81
2019-05-12T23:57:53.663Z,55.24
